Terminal Aerodrome Forecast
Issued by NWS Twin Cities, MN

Home | Current Version | Previous Version | Text Only | Print | Product List | Glossary Off
Versions: 1 2 3 4 5 6 7 8 9 10 11 12 13 14 15 16 17 18 19 20 21 22

000
FTUS43 KMPX 232300 RRA
TAFSTC
TAF
KSTC 232343Z 2400/2424 31009KT P6SM SCT025 OVC040
     FM240300 31012G20KT 5SM -SN SCT015 OVC022
     FM240500 31014G26KT P6SM OVC018
     FM241000 31018G29KT 6SM -SHSN OVC015=

USA.gov is the U.S. government's official web portal to all federal, state and local government web resources and services.